Time;durP1;ratioP1;P1;durP2;ratioP2;P2;SDS_P1;SDS_P2;PMS_P1;PMS_P2;Temp;Humidity;BMP_temperature;BMP_pressure;BME280_temperature;BME280_humidity;BME280_pressure;Samples;Min_cycle;Max_cycle;Signal;HPM_P1;HPM_P2
2022/05/07 05:02:39;;;;;;;;;;;8.70;99.90;;;;;;5395531;23;19974;-80
2022/05/07 05:05:08;;;;;;;;;;;8.80;99.90;;;;;;4911776;29;20243;-78
2022/05/07 05:07:35;;;;;;;;;;;8.80;99.90;;;;;;4928821;29;20250;-79
2022/05/07 05:10:02;;;;;;;;;;;8.90;99.90;;;;;;4924406;29;19907;-77
2022/05/07 05:12:38;;;;;;;;;;;9.00;99.90;;;;;;4910854;29;19977;-79
2022/05/07 05:15:06;;;;;;;;;;;9.10;99.90;;;;;;4894754;29;20192;-81
2022/05/07 05:17:48;;;;;;;;;;;9.20;99.90;;;;;;4909443;29;20101;-79
2022/05/07 05:20:14;;;;;;;;;;;9.30;99.90;;;;;;4919399;29;19939;-80
2022/05/07 05:22:49;;;;;;;;;;;9.40;99.90;;;;;;4918973;29;19922;-81
2022/05/07 05:25:20;;;;;;;;;;;9.50;99.90;;;;;;4921693;29;19899;-79
2022/05/07 05:27:47;;;;;;;;;;;9.50;99.90;;;;;;4909398;29;19911;-79
2022/05/07 05:30:13;;;;;;;;;;;9.60;99.90;;;;;;4907719;29;20012;-79
2022/05/07 05:32:39;;;;;;;;;;;9.70;99.90;;;;;;4906898;29;20134;-80
2022/05/07 05:35:07;;;;;;;;;;;9.70;99.90;;;;;;4907433;29;19917;-80
2022/05/07 05:37:38;;;;;;;;;;;9.70;99.90;;;;;;4936975;29;19946;-79
2022/05/07 05:40:05;;;;;;;;;;;9.80;99.90;;;;;;4906421;29;19919;-82
2022/05/07 05:42:37;;;;;;;;;;;9.90;99.90;;;;;;4921866;29;19918;-77
2022/05/07 05:45:03;;;;;;;;;;;10.00;99.90;;;;;;4922428;29;19927;-77
2022/05/07 05:47:28;;;;;;;;;;;10.10;99.90;;;;;;4903824;29;20166;-77
2022/05/07 05:49:54;;;;;;;;;;;10.20;99.90;;;;;;4921462;29;19954;-79
2022/05/07 05:52:26;;;;;;;;;;;10.30;99.90;;;;;;4919755;29;20261;-78
2022/05/07 05:54:52;;;;;;;;;;;10.40;99.90;;;;;;4921052;29;19935;-81
2022/05/07 05:57:18;;;;;;;;;;;10.50;99.90;;;;;;4913303;29;19951;-78
2022/05/07 05:59:45;;;;;;;;;;;10.60;99.90;;;;;;4936013;29;19919;-80
2022/05/07 06:02:17;;;;;;;;;;;10.70;99.90;;;;;;4902368;29;20014;-79
2022/05/07 06:04:53;;;;;;;;;;;10.80;99.90;;;;;;4896684;29;19946;-78
2022/05/07 06:07:22;;;;;;;;;;;10.80;99.90;;;;;;4903456;29;19911;-77
2022/05/07 06:09:49;;;;;;;;;;;10.90;99.90;;;;;;4904272;29;20101;-80
2022/05/07 06:12:21;;;;;;;;;;;11.00;99.90;;;;;;4902905;29;20130;-78
2022/05/07 06:14:51;;;;;;;;;;;11.20;99.90;;;;;;4888752;29;19911;-79
2022/05/07 06:17:17;;;;;;;;;;;11.30;99.90;;;;;;4901724;29;19911;-78
2022/05/07 06:19:46;;;;;;;;;;;11.40;99.90;;;;;;4903498;29;19919;-78
2022/05/07 06:22:12;;;;;;;;;;;11.60;99.90;;;;;;4886498;29;19911;-78
2022/05/07 06:27:32;;;;;;;;;;;11.80;99.90;;;;;;4888317;29;19951;-79
2022/05/07 06:30:20;;;;;;;;;;;11.90;99.90;;;;;;4895180;29;20185;-79
2022/05/07 06:32:50;;;;;;;;;;;12.00;99.90;;;;;;4902531;29;19911;-79
2022/05/07 06:35:17;;;;;;;;;;;12.20;99.90;;;;;;4902082;29;19958;-79
2022/05/07 06:37:55;;;;;;;;;;;12.30;99.90;;;;;;4905383;29;19911;-79
2022/05/07 06:40:24;;;;;;;;;;;12.30;99.90;;;;;;4922516;29;19986;-78
2022/05/07 06:42:51;;;;;;;;;;;12.50;99.90;;;;;;4907407;29;20268;-79
2022/05/07 06:45:29;;;;;;;;;;;12.50;99.90;;;;;;4924778;29;20048;-80
2022/05/07 06:47:54;;;;;;;;;;;12.60;99.90;;;;;;4909046;29;20202;-79
2022/05/07 06:50:20;;;;;;;;;;;12.70;99.90;;;;;;4924038;29;20193;-79
2022/05/07 06:52:46;;;;;;;;;;;12.80;99.90;;;;;;4939405;29;19911;-78
2022/05/07 06:55:13;;;;;;;;;;;13.00;99.90;;;;;;4941890;29;19911;-80
2022/05/07 06:57:38;;;;;;;;;;;13.10;99.90;;;;;;4924387;29;20119;-79
2022/05/07 07:00:04;;;;;;;;;;;13.10;99.90;;;;;;4923652;29;19934;-79
2022/05/07 07:02:30;;;;;;;;;;;13.20;99.90;;;;;;4922293;29;19934;-78
2022/05/07 07:04:58;;;;;;;;;;;13.40;99.90;;;;;;4936412;29;19911;-78
2022/05/07 07:07:25;;;;;;;;;;;13.50;99.80;;;;;;4919463;29;19922;-79
2022/05/07 07:09:51;;;;;;;;;;;13.60;99.90;;;;;;4919480;29;19914;-78
2022/05/07 07:12:17;;;;;;;;;;;13.80;99.50;;;;;;4921061;29;19950;-78
2022/05/07 07:14:44;;;;;;;;;;;14.00;99.50;;;;;;4920815;29;20097;-78
2022/05/07 07:17:10;;;;;;;;;;;14.10;98.60;;;;;;4898099;29;19911;-79
2022/05/07 07:19:36;;;;;;;;;;;14.10;98.10;;;;;;4898333;29;19942;-78
2022/05/07 07:22:02;;;;;;;;;;;14.20;98.00;;;;;;4898568;29;19982;-78
2022/05/07 07:24:27;;;;;;;;;;;14.30;97.60;;;;;;4885934;29;19916;-78
2022/05/07 07:26:53;;;;;;;;;;;14.40;97.00;;;;;;4901869;29;19944;-78
2022/05/07 07:29:19;;;;;;;;;;;14.50;96.80;;;;;;4901497;29;20217;-80
2022/05/07 07:31:44;;;;;;;;;;;14.60;96.00;;;;;;4883912;29;19939;-81
2022/05/07 07:34:10;;;;;;;;;;;14.70;95.50;;;;;;4899984;29;19978;-80
2022/05/07 07:36:35;;;;;;;;;;;14.80;95.10;;;;;;4899739;29;20007;-77
2022/05/07 07:39:06;;;;;;;;;;;15.00;94.70;;;;;;4870082;29;19912;-77
2022/05/07 07:41:33;;;;;;;;;;;15.00;94.20;;;;;;4900715;29;19915;-77
2022/05/07 07:43:59;;;;;;;;;;;15.20;94.20;;;;;;4885316;29;20023;-77
2022/05/07 07:49:09;;;;;;;;;;;15.50;93.60;;;;;;4900389;29;20205;-77
2022/05/07 07:51:35;;;;;;;;;;;15.60;93.10;;;;;;4898219;29;19995;-78
2022/05/07 07:54:00;;;;;;;;;;;15.80;92.80;;;;;;4904589;29;19911;-78
2022/05/07 07:56:26;;;;;;;;;;;15.80;92.10;;;;;;4921369;29;19918;-77
2022/05/07 07:58:52;;;;;;;;;;;15.80;92.20;;;;;;4939581;29;19977;-80
2022/05/07 08:01:18;;;;;;;;;;;16.00;92.10;;;;;;4941865;29;19918;-78
2022/05/07 08:03:44;;;;;;;;;;;16.10;92.10;;;;;;4937404;29;20192;-79
2022/05/07 08:06:09;;;;;;;;;;;16.30;92.30;;;;;;4904850;29;19930;-78
2022/05/07 08:12:02;;;;;;;;;;;16.40;91.50;;;;;;4937974;29;19917;-79
2022/05/07 08:14:08;;;;;;;;;;;16.40;91.60;;;;;;4927178;29;19910;-78
2022/05/07 08:16:34;;;;;;;;;;;16.50;91.50;;;;;;4930847;29;20268;-79
2022/05/07 08:19:00;;;;;;;;;;;16.50;91.50;;;;;;4916341;29;19918;-79
2022/05/07 08:21:28;;;;;;;;;;;16.60;91.30;;;;;;4934976;29;19917;-79
2022/05/07 08:23:54;;;;;;;;;;;16.70;91.20;;;;;;4934860;29;19946;-80
2022/05/07 08:26:19;;;;;;;;;;;16.90;91.10;;;;;;4936913;29;19945;-78
2022/05/07 08:28:45;;;;;;;;;;;17.00;90.90;;;;;;4917270;29;19923;-78
2022/05/07 08:31:11;;;;;;;;;;;17.00;90.60;;;;;;4925452;29;19982;-77
2022/05/07 08:33:40;;;;;;;;;;;17.10;90.60;;;;;;4916174;29;19907;-78
2022/05/07 08:36:07;;;;;;;;;;;17.10;90.40;;;;;;4914692;29;19947;-79
2022/05/07 08:38:34;;;;;;;;;;;17.10;90.30;;;;;;4911796;29;19919;-79
2022/05/07 08:41:00;;;;;;;;;;;17.30;90.50;;;;;;4899855;29;19925;-79
2022/05/07 08:43:38;;;;;;;;;;;17.30;90.30;;;;;;4914091;29;19923;-79
2022/05/07 08:46:12;;;;;;;;;;;17.60;90.30;;;;;;4912684;29;19923;-79
2022/05/07 08:48:39;;;;;;;;;;;17.60;90.10;;;;;;4911787;29;19919;-78
2022/05/07 08:51:05;;;;;;;;;;;17.70;89.40;;;;;;4913630;29;20080;-80
2022/05/07 08:53:31;;;;;;;;;;;17.80;89.70;;;;;;4913164;29;19911;-79
2022/05/07 08:55:57;;;;;;;;;;;17.90;89.70;;;;;;4912059;29;20094;-79
2022/05/07 08:58:24;;;;;;;;;;;17.90;88.50;;;;;;4912386;29;19911;-80
2022/05/07 09:00:50;;;;;;;;;;;18.00;88.10;;;;;;4911950;29;19919;-80
2022/05/07 09:03:16;;;;;;;;;;;18.00;88.70;;;;;;4912042;29;20090;-79
2022/05/07 09:05:43;;;;;;;;;;;18.10;88.80;;;;;;4912629;29;19930;-80
2022/05/07 09:08:12;;;;;;;;;;;18.20;88.50;;;;;;4893857;29;19971;-79
2022/05/07 09:10:38;;;;;;;;;;;18.40;85.90;;;;;;4890704;29;19911;-79
2022/05/07 09:13:08;;;;;;;;;;;18.50;86.20;;;;;;4907074;29;19935;-79
2022/05/07 09:15:34;;;;;;;;;;;18.50;84.80;;;;;;4892354;29;19982;-79
2022/05/07 09:18:00;;;;;;;;;;;18.60;85.50;;;;;;4904312;29;19938;-79
2022/05/07 09:20:27;;;;;;;;;;;18.70;85.10;;;;;;4892073;29;20209;-79
2022/05/07 09:22:55;;;;;;;;;;;18.70;84.40;;;;;;4889396;29;19912;-79
2022/05/07 09:25:22;;;;;;;;;;;18.90;83.70;;;;;;4890315;29;20096;-79
2022/05/07 09:27:48;;;;;;;;;;;19.10;83.40;;;;;;4896435;29;20059;-81
2022/05/07 09:30:20;;;;;;;;;;;19.20;82.40;;;;;;4907081;29;19911;-79
2022/05/07 09:32:48;;;;;;;;;;;19.20;81.60;;;;;;4896867;29;20181;-80
2022/05/07 09:38:02;;;;;;;;;;;19.50;81.40;;;;;;4898431;29;19912;-78
2022/05/07 09:40:29;;;;;;;;;;;19.60;77.90;;;;;;4894457;29;19966;-80
2022/05/07 09:42:57;;;;;;;;;;;19.80;75.10;;;;;;4898326;29;19915;-81
2022/05/07 09:45:27;;;;;;;;;;;19.90;74.70;;;;;;4912234;29;20101;-81
2022/05/07 09:47:59;;;;;;;;;;;19.90;71.00;;;;;;4902219;29;19910;-79
2022/05/07 09:58:38;;;;;;;;;;;20.10;71.10;;;;;;4928892;29;19918;-79
2022/05/07 10:01:25;;;;;;;;;;;20.00;70.80;;;;;;4909048;28;19966;-79
2022/05/07 10:03:59;;;;;;;;;;;20.10;71.50;;;;;;4919361;28;20018;-78
2022/05/07 10:06:49;;;;;;;;;;;20.30;69.80;;;;;;4913588;29;19911;-80
2022/05/07 10:09:21;;;;;;;;;;;20.60;69.60;;;;;;4915456;29;19911;-77
2022/05/07 10:12:20;;;;;;;;;;;20.90;67.00;;;;;;4912394;29;21141;-81
2022/05/07 10:17:38;;;;;;;;;;;21.20;68.30;;;;;;4888483;29;20085;-79
2022/05/07 10:20:05;;;;;;;;;;;21.30;68.00;;;;;;4928494;29;19953;-79
2022/05/07 10:22:40;;;;;;;;;;;21.40;66.00;;;;;;4925617;29;19911;-78
2022/05/07 10:25:06;;;;;;;;;;;21.50;63.10;;;;;;4908171;29;19911;-79
2022/05/07 10:31:15;;;;;;;;;;;21.60;65.30;;;;;;4892869;29;19918;-79
2022/05/07 10:33:48;;;;;;;;;;;21.70;67.70;;;;;;4904532;29;19911;-80
2022/05/07 10:36:49;;;;;;;;;;;21.90;68.90;;;;;;4889767;29;19971;-79
2022/05/07 10:39:15;;;;;;;;;;;22.00;68.50;;;;;;4917754;29;20216;-80
2022/05/07 10:41:46;;;;;;;;;;;22.10;67.10;;;;;;4902205;29;19911;-79
2022/05/07 10:44:11;;;;;;;;;;;22.10;66.70;;;;;;4906810;29;19942;-79
2022/05/07 10:46:43;;;;;;;;;;;22.00;67.70;;;;;;4917823;29;19911;-83
2022/05/07 10:49:09;;;;;;;;;;;22.00;68.00;;;;;;4920512;29;19957;-80
2022/05/07 10:51:36;;;;;;;;;;;21.90;67.30;;;;;;4895041;29;19923;-79
2022/05/07 10:54:18;;;;;;;;;;;22.00;67.80;;;;;;4903026;29;19934;-78
2022/05/07 10:57:03;;;;;;;;;;;22.20;68.70;;;;;;4916287;29;19946;-81
2022/05/07 10:59:29;;;;;;;;;;;22.30;68.40;;;;;;4922841;29;19919;-77
2022/05/07 11:05:36;;;;;;;;;;;22.40;67.00;;;;;;4913369;29;19939;-80
2022/05/07 11:08:02;;;;;;;;;;;22.90;66.10;;;;;;4908612;29;19911;-80
2022/05/07 11:10:29;;;;;;;;;;;23.00;65.90;;;;;;4884978;29;19932;-82
2022/05/07 11:13:07;;;;;;;;;;;23.30;64.50;;;;;;4917462;29;19940;-82
2022/05/07 11:15:33;;;;;;;;;;;23.30;63.30;;;;;;4894826;29;19911;-81
2022/05/07 11:17:59;;;;;;;;;;;23.20;63.30;;;;;;4908546;29;19911;-80
2022/05/07 11:20:35;;;;;;;;;;;22.90;63.80;;;;;;4903627;29;19931;-80
2022/05/07 11:23:03;;;;;;;;;;;23.30;63.20;;;;;;4921755;29;19942;-78
2022/05/07 11:25:31;;;;;;;;;;;23.90;59.80;;;;;;4916979;29;19942;-79
2022/05/07 11:30:54;;;;;;;;;;;24.60;59.10;;;;;;4899540;29;19938;-79
2022/05/07 11:33:23;;;;;;;;;;;25.30;58.80;;;;;;4908837;29;19911;-78
2022/05/07 11:39:15;;;;;;;;;;;26.30;57.10;;;;;;4891667;29;19950;-80
2022/05/07 11:41:41;;;;;;;;;;;27.00;55.80;;;;;;4924275;29;19951;-79
2022/05/07 11:46:56;;;;;;;;;;;27.60;55.20;;;;;;4921849;29;20169;-79
2022/05/07 11:49:27;;;;;;;;;;;27.60;54.60;;;;;;4921503;29;19911;-80
2022/05/07 11:52:03;;;;;;;;;;;27.70;53.60;;;;;;4924103;29;19958;-81
2022/05/07 11:54:28;;;;;;;;;;;27.80;52.70;;;;;;4924011;29;20015;-81
2022/05/07 11:56:54;;;;;;;;;;;27.50;53.10;;;;;;4908016;29;19990;-81
2022/05/07 11:59:20;;;;;;;;;;;27.60;53.00;;;;;;4924441;29;20205;-80
2022/05/07 12:01:48;;;;;;;;;;;28.50;53.10;;;;;;4906558;29;19911;-80
2022/05/07 12:04:13;;;;;;;;;;;29.00;51.70;;;;;;4905551;29;19919;-80
2022/05/07 12:10:15;;;;;;;;;;;29.50;51.20;;;;;;4924070;29;20105;-80
2022/05/07 12:12:41;;;;;;;;;;;31.40;50.20;;;;;;4924209;29;19918;-79
2022/05/07 12:15:07;;;;;;;;;;;32.20;50.80;;;;;;4940643;29;19946;-79
2022/05/07 12:32:07;;;;;;;;;;;27.40;53.20;;;;;;4940435;29;20112;-80
2022/05/07 12:34:58;;;;;;;;;;;27.30;54.10;;;;;;4939532;29;19966;-80
2022/05/07 12:37:26;;;;;;;;;;;26.80;54.70;;;;;;4876695;29;20099;-80
2022/05/07 12:39:51;;;;;;;;;;;27.20;54.80;;;;;;4940144;29;19925;-80
2022/05/07 12:52:55;;;;;;;;;;;30.60;50.70;;;;;;4924779;29;20268;-79
2022/05/07 12:55:54;;;;;;;;;;;31.40;49.90;;;;;;4915232;29;19911;-78
2022/05/07 12:58:44;;;;;;;;;;;32.40;49.00;;;;;;4908936;29;19915;-79
2022/05/07 13:01:38;;;;;;;;;;;32.50;48.10;;;;;;4893011;29;19919;-80
2022/05/07 13:04:08;;;;;;;;;;;33.80;47.60;;;;;;4894341;29;19922;-80
2022/05/07 13:06:34;;;;;;;;;;;35.00;48.20;;;;;;4905948;29;19915;-80
2022/05/07 13:09:00;;;;;;;;;;;35.50;46.50;;;;;;4903462;29;19946;-79
2022/05/07 13:18:52;;;;;;;;;;;;;;;;;;;;;
2022/05/07 13:21:44;;;;;;;;;;;37.90;43.50;;;;;;4824568;29;20262;-78
2022/05/07 13:24:11;;;;;;;;;;;38.90;43.30;;;;;;4861594;29;19923;-79
2022/05/07 13:26:41;;;;;;;;;;;39.50;42.70;;;;;;4894734;29;20015;-81
2022/05/07 13:29:09;;;;;;;;;;;40.30;42.40;;;;;;4825594;29;20233;-80
2022/05/07 13:31:37;;;;;;;;;;;40.70;41.60;;;;;;4870738;29;20241;-80
2022/05/07 13:34:03;;;;;;;;;;;41.20;41.10;;;;;;4889132;29;19911;-78
2022/05/07 13:36:29;;;;;;;;;;;40.30;41.20;;;;;;4900077;29;19911;-78
2022/05/07 13:38:55;;;;;;;;;;;38.10;41.30;;;;;;4884927;29;19919;-79
2022/05/07 13:41:21;;;;;;;;;;;35.70;43.50;;;;;;4882684;29;19919;-78
2022/05/07 13:43:47;;;;;;;;;;;33.90;44.90;;;;;;4899005;29;20129;-78
2022/05/07 13:46:13;;;;;;;;;;;32.50;45.80;;;;;;4899010;29;19912;-79
2022/05/07 13:48:38;;;;;;;;;;;32.00;46.40;;;;;;4897075;29;19923;-79
2022/05/07 13:51:07;;;;;;;;;;;32.90;45.70;;;;;;4898294;29;19912;-79
2022/05/07 13:53:33;;;;;;;;;;;34.60;45.30;;;;;;4903704;29;19907;-79
2022/05/07 13:55:59;;;;;;;;;;;35.90;43.70;;;;;;4918646;29;19978;-80
2022/05/07 13:58:25;;;;;;;;;;;36.70;43.70;;;;;;4919231;29;19962;-81
2022/05/07 14:00:51;;;;;;;;;;;36.50;43.40;;;;;;4917167;29;20082;-81
2022/05/07 14:03:17;;;;;;;;;;;35.30;43.00;;;;;;4915817;29;19911;-79
2022/05/07 14:05:44;;;;;;;;;;;35.00;43.40;;;;;;4918278;29;19911;-80
2022/05/07 14:08:10;;;;;;;;;;;35.30;42.80;;;;;;4916750;29;20167;-80
2022/05/07 14:10:36;;;;;;;;;;;35.00;43.40;;;;;;4917233;29;19911;-80
2022/05/07 14:13:02;;;;;;;;;;;35.70;43.80;;;;;;4919075;29;19950;-80
2022/05/07 14:15:28;;;;;;;;;;;37.10;43.80;;;;;;4916482;29;19907;-80
2022/05/07 14:17:55;;;;;;;;;;;37.90;43.00;;;;;;4915768;29;19918;-80
2022/05/07 14:20:21;;;;;;;;;;;37.10;42.40;;;;;;4907256;29;20197;-80
2022/05/07 14:22:47;;;;;;;;;;;36.30;42.10;;;;;;4915144;29;19955;-79
2022/05/07 14:25:12;;;;;;;;;;;35.50;43.10;;;;;;4919017;29;19911;-79
2022/05/07 14:27:41;;;;;;;;;;;34.70;44.00;;;;;;4916944;29;19926;-78
2022/05/07 14:30:09;;;;;;;;;;;33.80;44.90;;;;;;4918568;29;19907;-78
2022/05/07 14:32:38;;;;;;;;;;;33.30;45.40;;;;;;4916696;29;19934;-79
2022/05/07 14:35:05;;;;;;;;;;;33.70;45.50;;;;;;4918728;29;19914;-79
2022/05/07 14:37:30;;;;;;;;;;;35.10;44.40;;;;;;4919882;29;19950;-79
2022/05/07 14:39:56;;;;;;;;;;;34.50;44.30;;;;;;4917814;29;20285;-78
2022/05/07 14:42:23;;;;;;;;;;;33.40;45.10;;;;;;4919011;29;19911;-80
2022/05/07 14:44:50;;;;;;;;;;;32.30;45.90;;;;;;4919592;29;20097;-78
2022/05/07 14:47:20;;;;;;;;;;;31.10;46.60;;;;;;4917773;29;19911;-78
2022/05/07 14:49:46;;;;;;;;;;;30.10;47.60;;;;;;4917830;29;20129;-78
2022/05/07 14:52:11;;;;;;;;;;;29.90;48.40;;;;;;4919779;29;20036;-79
2022/05/07 14:54:37;;;;;;;;;;;30.80;47.80;;;;;;4917468;29;19950;-79
2022/05/07 14:57:03;;;;;;;;;;;31.30;48.20;;;;;;4914481;29;19912;-79
2022/05/07 14:59:31;;;;;;;;;;;32.00;47.30;;;;;;4904765;29;20163;-79
2022/05/07 15:01:59;;;;;;;;;;;32.70;46.80;;;;;;4898560;29;19904;-80
2022/05/07 15:04:26;;;;;;;;;;;33.80;46.00;;;;;;4900733;29;19919;-79
2022/05/07 15:06:52;;;;;;;;;;;34.80;44.80;;;;;;4905215;29;19911;-79
2022/05/07 15:12:07;;;;;;;;;;;35.70;44.70;;;;;;4882963;29;19971;-80
2022/05/07 15:14:33;;;;;;;;;;;36.80;42.90;;;;;;4900761;29;20058;-79
2022/05/07 15:23:58;;;;;;;;;;;39.00;42.30;;;;;;5118211;23;20125;-80
2022/05/07 15:26:23;;;;;;;;;;;37.60;42.10;;;;;;4920624;29;19911;-80
2022/05/07 15:28:49;;;;;;;;;;;35.30;43.70;;;;;;4916460;29;19917;-80
2022/05/07 15:31:15;;;;;;;;;;;33.30;46.00;;;;;;4918967;29;19911;-79
2022/05/07 15:48:09;;;;;;;;;;;33.40;45.20;;;;;;4921782;23;20240;-79
2022/05/07 15:50:38;;;;;;;;;;;33.10;44.90;;;;;;4902514;29;20002;-80
2022/05/07 15:53:04;;;;;;;;;;;32.10;45.90;;;;;;4893497;29;20089;-80
2022/05/07 15:55:33;;;;;;;;;;;31.40;46.50;;;;;;4896767;29;19967;-79
2022/05/07 16:07:41;;;;;;;;;;;28.00;50.90;;;;;;5086815;23;19973;-79
2022/05/07 16:10:07;;;;;;;;;;;27.60;51.00;;;;;;4960089;29;20184;-80
2022/05/07 16:12:33;;;;;;;;;;;27.20;51.70;;;;;;4959695;29;20153;-79
2022/05/07 16:15:01;;;;;;;;;;;26.60;52.30;;;;;;4959232;29;19906;-80
2022/05/07 16:17:30;;;;;;;;;;;26.30;53.10;;;;;;4957685;29;19973;-80
2022/05/07 16:26:12;;;;;;;;;;;25.50;53.70;;;;;;4940908;29;19940;-81
2022/05/07 16:28:38;;;;;;;;;;;25.90;53.30;;;;;;4947384;29;19914;-81
2022/05/07 16:31:04;;;;;;;;;;;26.80;52.60;;;;;;4940280;29;19906;-81
2022/05/07 16:33:30;;;;;;;;;;;28.10;50.90;;;;;;4956890;29;19910;-80
2022/05/07 16:35:59;;;;;;;;;;;29.20;49.60;;;;;;4945079;29;19914;-81
2022/05/07 16:38:25;;;;;;;;;;;30.60;48.10;;;;;;4957231;29;19910;-79
2022/05/07 16:40:51;;;;;;;;;;;31.70;47.20;;;;;;4907737;29;20193;-79
2022/05/07 16:43:16;;;;;;;;;;;32.80;46.20;;;;;;4954169;29;19922;-79
2022/05/07 16:45:42;;;;;;;;;;;33.10;45.70;;;;;;4954401;29;19910;-80
2022/05/07 16:48:10;;;;;;;;;;;32.30;46.20;;;;;;4954871;29;19922;-80
2022/05/07 16:50:36;;;;;;;;;;;31.10;47.00;;;;;;4939680;29;19910;-82
2022/05/07 16:53:03;;;;;;;;;;;30.30;47.80;;;;;;4938425;29;19930;-79
2022/05/07 16:55:29;;;;;;;;;;;28.90;49.00;;;;;;4913097;29;19910;-83
2022/05/07 16:57:54;;;;;;;;;;;28.10;50.40;;;;;;4932154;29;21651;-84
2022/05/07 17:00:20;;;;;;;;;;;27.70;50.80;;;;;;4953827;29;19942;-79
2022/05/07 17:02:46;;;;;;;;;;;27.60;51.00;;;;;;4885605;29;19914;-80
2022/05/07 17:05:12;;;;;;;;;;;27.50;51.10;;;;;;4920218;29;19958;-79
2022/05/07 17:07:39;;;;;;;;;;;27.30;51.40;;;;;;4911662;29;19911;-81
2022/05/07 17:10:06;;;;;;;;;;;27.30;51.00;;;;;;4918574;29;20096;-80
2022/05/07 17:12:32;;;;;;;;;;;27.40;51.10;;;;;;4904377;29;20094;-81
2022/05/07 17:14:58;;;;;;;;;;;27.20;51.30;;;;;;4922382;29;19986;-81
2022/05/07 17:17:24;;;;;;;;;;;27.10;51.80;;;;;;4925645;29;19935;-81
2022/05/07 17:19:51;;;;;;;;;;;27.00;51.00;;;;;;4919958;29;19919;-80
2022/05/07 17:22:19;;;;;;;;;;;26.60;51.60;;;;;;4909679;29;20207;-80
2022/05/07 17:24:47;;;;;;;;;;;26.20;52.30;;;;;;4920138;29;19970;-81
2022/05/07 17:27:13;;;;;;;;;;;26.10;52.70;;;;;;4919384;29;20197;-80
2022/05/07 17:29:40;;;;;;;;;;;26.00;52.50;;;;;;4935372;29;19910;-80
2022/05/07 17:32:06;;;;;;;;;;;26.00;52.90;;;;;;4938663;29;19950;-81
2022/05/07 17:34:32;;;;;;;;;;;26.50;52.80;;;;;;4935677;29;19938;-82
2022/05/07 17:37:02;;;;;;;;;;;27.00;51.50;;;;;;4918681;29;19982;-83
2022/05/07 17:39:27;;;;;;;;;;;27.20;51.40;;;;;;4917975;29;20169;-81
2022/05/07 17:41:54;;;;;;;;;;;27.60;50.50;;;;;;4919676;29;19921;-81
2022/05/07 17:44:19;;;;;;;;;;;27.50;49.90;;;;;;4930487;29;19911;-80
2022/05/07 17:46:51;;;;;;;;;;;26.70;50.50;;;;;;4926013;29;19917;-82
2022/05/07 17:49:17;;;;;;;;;;;26.30;51.00;;;;;;4903266;29;19911;-82
2022/05/07 17:51:51;;;;;;;;;;;26.10;51.40;;;;;;4887403;29;20026;-80
2022/05/07 17:54:37;;;;;;;;;;;26.00;52.10;;;;;;4891051;29;19997;-80
2022/05/07 17:57:05;;;;;;;;;;;25.60;52.90;;;;;;4860934;29;19927;-83
2022/05/07 17:59:31;;;;;;;;;;;25.20;53.50;;;;;;4818823;29;19980;-79
2022/05/07 18:02:04;;;;;;;;;;;24.80;53.90;;;;;;4863512;29;19919;-80
2022/05/07 18:04:34;;;;;;;;;;;24.40;53.90;;;;;;4910882;29;19915;-79
2022/05/07 18:07:28;;;;;;;;;;;24.10;55.10;;;;;;4905053;29;19986;-80
2022/05/07 18:09:53;;;;;;;;;;;23.80;55.90;;;;;;4923625;29;19923;-79
2022/05/07 18:12:29;;;;;;;;;;;23.50;56.00;;;;;;4911715;29;19915;-80
2022/05/07 18:14:55;;;;;;;;;;;23.30;56.60;;;;;;4908886;29;20191;-80
2022/05/07 18:17:24;;;;;;;;;;;23.10;56.50;;;;;;4918156;29;19911;-79
2022/05/07 18:19:50;;;;;;;;;;;22.90;57.60;;;;;;4901100;29;20112;-79
2022/05/07 18:22:17;;;;;;;;;;;22.70;58.00;;;;;;4903974;29;19918;-78
2022/05/07 18:24:44;;;;;;;;;;;22.50;58.00;;;;;;4931736;29;19921;-78
2022/05/07 18:27:22;;;;;;;;;;;22.30;58.90;;;;;;4920977;29;20172;-80
2022/05/07 18:30:40;;;;;;;;;;;22.10;58.90;;;;;;4885331;29;20181;-81
2022/05/07 18:33:27;;;;;;;;;;;21.80;59.70;;;;;;4742825;29;20015;-81
2022/05/07 18:45:21;;;;;;;;;;;21.00;61.70;;;;;;4847584;29;19947;-79
2022/05/07 18:51:02;;;;;;;;;;;20.60;62.90;;;;;;4838474;29;19974;-79
2022/05/07 18:53:28;;;;;;;;;;;20.40;63.40;;;;;;4821242;29;20007;-79
2022/05/07 18:58:39;;;;;;;;;;;20.00;64.10;;;;;;4860825;29;20047;-80
2022/05/07 19:01:05;;;;;;;;;;;19.80;64.80;;;;;;4860813;29;19920;-80
2022/05/07 19:03:34;;;;;;;;;;;19.60;65.30;;;;;;4837118;29;19912;-80
2022/05/07 19:06:00;;;;;;;;;;;19.50;65.90;;;;;;4836820;29;19924;-80
2022/05/07 19:08:30;;;;;;;;;;;19.40;66.40;;;;;;4841883;29;20033;-80
2022/05/07 19:10:56;;;;;;;;;;;19.30;66.70;;;;;;4858453;29;20127;-79
2022/05/07 19:13:22;;;;;;;;;;;19.10;66.90;;;;;;4906676;29;19918;-80
2022/05/07 19:15:49;;;;;;;;;;;19.00;67.50;;;;;;4916256;29;19918;-80
2022/05/07 19:18:15;;;;;;;;;;;18.90;68.20;;;;;;4899092;29;19911;-79
2022/05/07 19:20:41;;;;;;;;;;;18.80;68.60;;;;;;4917598;29;20305;-79
2022/05/07 19:23:17;;;;;;;;;;;18.60;68.80;;;;;;4892167;29;19911;-79
2022/05/07 19:25:46;;;;;;;;;;;18.50;69.60;;;;;;4837714;29;19919;-79
2022/05/07 19:28:41;;;;;;;;;;;18.50;70.30;;;;;;4903618;29;20101;-79
2022/05/07 19:31:22;;;;;;;;;;;18.40;70.50;;;;;;4887074;29;20214;-79
2022/05/07 19:34:16;;;;;;;;;;;18.40;70.80;;;;;;4854901;29;20281;-79
2022/05/07 19:37:26;;;;;;;;;;;18.30;70.50;;;;;;4911437;29;19945;-79
2022/05/07 19:39:58;;;;;;;;;;;18.30;71.10;;;;;;4842818;29;19920;-79
2022/05/07 19:42:27;;;;;;;;;;;18.10;71.30;;;;;;4827229;29;19948;-78
2022/05/07 19:44:54;;;;;;;;;;;18.00;71.70;;;;;;4880899;29;19995;-78
2022/05/07 19:47:33;;;;;;;;;;;17.80;72.00;;;;;;4780028;29;19956;-79
2022/05/07 19:53:50;;;;;;;;;;;17.60;74.20;;;;;;4915738;29;20276;-80
2022/05/07 20:07:19;;;;;;;;;;;16.90;76.30;;;;;;4823917;29;19992;-79
2022/05/07 20:10:10;;;;;;;;;;;;;;;;;;;;;
2022/05/07 20:12:46;;;;;;;;;;;16.70;77.70;;;;;;4832972;29;19912;-78
2022/05/07 20:15:13;;;;;;;;;;;16.60;78.00;;;;;;4840012;29;19935;-79
2022/05/07 20:17:46;;;;;;;;;;;16.50;78.50;;;;;;4826345;29;19909;-78
2022/05/07 20:20:13;;;;;;;;;;;16.40;79.00;;;;;;4846901;29;19940;-79
2022/05/07 20:22:40;;;;;;;;;;;16.40;79.00;;;;;;4841417;29;19920;-79
2022/05/07 20:25:07;;;;;;;;;;;16.40;79.30;;;;;;4837619;29;19919;-79
2022/05/07 20:27:34;;;;;;;;;;;16.30;79.70;;;;;;4834265;29;20205;-78
2022/05/07 20:30:01;;;;;;;;;;;16.30;79.70;;;;;;4847342;29;20010;-79
2022/05/07 20:32:26;;;;;;;;;;;16.20;79.90;;;;;;4845586;29;19969;-80
2022/05/07 20:34:52;;;;;;;;;;;16.10;80.30;;;;;;4845053;29;19920;-79
2022/05/07 20:37:21;;;;;;;;;;;16.10;80.50;;;;;;4846421;29;19953;-80
2022/05/07 20:39:47;;;;;;;;;;;16.10;80.50;;;;;;4880354;29;19927;-79
2022/05/07 20:42:13;;;;;;;;;;;16.10;81.00;;;;;;4902577;29;20142;-79
2022/05/07 20:47:23;;;;;;;;;;;15.90;82.10;;;;;;4891334;29;20073;-79
2022/05/07 20:49:51;;;;;;;;;;;15.80;82.60;;;;;;4895974;29;19958;-78
2022/05/07 20:52:19;;;;;;;;;;;15.70;83.40;;;;;;4922388;29;19918;-79
2022/05/07 20:54:44;;;;;;;;;;;15.60;84.00;;;;;;4875217;29;19912;-78
2022/05/07 20:57:10;;;;;;;;;;;15.50;84.80;;;;;;4891347;29;19915;-78
2022/05/07 20:59:36;;;;;;;;;;;15.50;84.90;;;;;;4906497;29;20181;-79
2022/05/07 21:02:02;;;;;;;;;;;15.40;85.00;;;;;;4903513;29;19983;-79
2022/05/07 21:04:28;;;;;;;;;;;15.30;85.40;;;;;;4902886;29;19970;-80
2022/05/07 21:06:54;;;;;;;;;;;15.20;85.60;;;;;;4905246;29;19911;-79
2022/05/07 21:12:51;;;;;;;;;;;15.10;85.80;;;;;;4937779;29;20109;-78
2022/05/07 21:15:17;;;;;;;;;;;15.10;86.10;;;;;;4944123;29;19939;-79
2022/05/07 21:17:43;;;;;;;;;;;15.10;86.40;;;;;;4943598;29;20084;-78
2022/05/07 21:20:09;;;;;;;;;;;15.00;86.20;;;;;;4942086;29;19973;-78
2022/05/07 21:22:36;;;;;;;;;;;15.00;86.60;;;;;;4923211;29;19911;-79
2022/05/07 21:27:49;;;;;;;;;;;14.90;87.20;;;;;;4930350;29;20185;-78
2022/05/07 21:30:19;;;;;;;;;;;14.90;87.60;;;;;;4940956;29;19991;-79
2022/05/07 21:32:45;;;;;;;;;;;14.80;87.70;;;;;;4922542;29;20185;-80
2022/05/07 21:35:11;;;;;;;;;;;14.70;88.50;;;;;;4940550;29;20002;-78
2022/05/07 21:37:41;;;;;;;;;;;14.60;89.20;;;;;;4924674;29;19911;-78
2022/05/07 21:40:27;;;;;;;;;;;14.60;89.10;;;;;;4938362;29;19970;-77
2022/05/07 21:42:54;;;;;;;;;;;14.60;89.70;;;;;;4910496;29;19922;-78
2022/05/07 21:45:19;;;;;;;;;;;14.50;90.00;;;;;;4911568;29;20264;-78
2022/05/07 21:47:51;;;;;;;;;;;14.40;90.20;;;;;;4906857;29;19911;-78
2022/05/07 21:53:27;;;;;;;;;;;14.30;90.30;;;;;;4905324;29;19974;-77
2022/05/07 21:55:52;;;;;;;;;;;14.30;90.60;;;;;;4893895;29;19930;-78
2022/05/07 21:58:39;;;;;;;;;;;14.20;90.60;;;;;;4924407;29;19955;-78
2022/05/07 22:01:21;;;;;;;;;;;14.20;90.60;;;;;;4924487;29;19927;-78
2022/05/07 22:03:47;;;;;;;;;;;14.20;90.90;;;;;;4923889;29;19972;-79
2022/05/07 22:06:19;;;;;;;;;;;14.10;91.00;;;;;;4925625;29;19947;-78
2022/05/07 22:12:00;;;;;;;;;;;14.00;91.80;;;;;;4926045;29;20188;-79